Meath Environmental Platform

Observations

Time Sensor AQI SAQ Temp °C Hum % Pres Pa CO μg/m³ H₂S μg/m³ NO μg/m³ NO₂ μg/m³ O₃ μg/m³ SO₂ μg/m³ CO₂e PPM VOC PPM PM1 μg/m³ PM2.5 μg/m³ PM4 μg/m³ PM10 μg/m³ TPS µm
Wednesday 12 August 2026
06:39 Trim Market St 2 20 68 56,634 0.12 0 1.15 10.72 71.03 0 2.85 5.13 8.17
06:39 Trim Patrick St 2 19.6 69 38,460 0.07 0.46 1.17 16.42 56.23 0 7.14 11.71 12.88
06:38 Trim Market St 2 20 68 56,628 0.12 0 1.15 10.31 68.25 0 4.28 5.61 8.81
06:38 Trim Patrick St 2 19.6 70 38,460 0.07 0 1.15 15.01 50.37 0 6.29 9.45 10.39
06:37 Trim Market St 2 20 68 56,620 0.12 0 1.14 10.88 71.35 0 4.28 5.61 8.17
06:37 Trim Patrick St 2 19.5 70 38,460 0.07 0 1.15 10.59 52.5 0 7.14 11.64 12.81
06:36 Trim Market St 2 20 68 56,609 0.12 0 1.14 11.12 72.33 0 4.99 6.1 8.81
06:36 Trim Patrick St 2 19.6 71 38,460 0.06 0 1.12 8.03 50.13 0 6.29 10.86 11.94
06:35 Trim Market St 2 19.9 68 56,605 0.12 0 1.16 11.67 69.56 0 4.28 5.61 8.17
06:35 Trim Patrick St 2 19.5 70 38,460 0.07 0 1.13 9.09 48.76 0 7.14 11.6 12.76
06:34 Trim Market St 2 19.9 68 56,607 0.13 0 1.17 11.61 65.41 0 3.56 6.1 8.81
06:34 Trim Patrick St 2 19.5 71 38,460 0.07 0 1.15 7.68 47.47 0 7.14 12.3 13.53
06:33 Trim Market St 2 19.9 68 56,611 0.1 0 1.16 11.49 70.53 0 4.28 6.1 8.81
06:33 Trim Patrick St 2 19.5 70 38,460 0.07 0 1.18 16.46 46.05 0 7.14 11.6 12.76
06:32 Trim Market St 2 19.9 68 56,603 0.12 0 1.17 10.31 68.85 0 3.56 5.11 8.17
06:32 Trim Patrick St 2 19.4 71 38,460 0.07 0 1.25 13.62 49.08 0 8 11.59 12.75
06:31 Trim Market St 2 19.9 68 56,601 0.11 0 1.16 12 68.6 0 4.28 5.61 8.17
06:31 Trim Patrick St 2 19.4 71 38,460 0.07 0 1.29 13.62 47.7 0 7.14 10.87 11.96
06:30 Trim Market St 2 19.8 68 56,603 0.12 0 1.18 11.05 76.75 0 4.28 6.58 10.09
06:30 Trim Patrick St 2 19.4 71 38,460 0.08 0 1.32 14.14 52 0 7.14 12.3 13.53